createdAt,value
2023-08-30T00:02:23.166Z,100615.80
2023-08-30T00:04:51.664Z,100612.20
2023-08-30T00:07:19.490Z,100609.60
2023-08-30T00:09:47.643Z,100609.40
2023-08-30T00:12:15.522Z,100600.40
2023-08-30T00:14:43.348Z,100600.40
2023-08-30T00:17:11.435Z,100595.60
2023-08-30T00:19:39.447Z,100596.00
2023-08-30T00:22:09.988Z,100600.00
2023-08-30T00:24:38.544Z,100598.60
2023-08-30T00:27:06.367Z,100599.40
2023-08-30T00:29:34.223Z,100598.20
2023-08-30T00:32:02.063Z,100600.00
2023-08-30T00:34:29.903Z,100593.80
2023-08-30T00:36:57.851Z,100599.80
2023-08-30T00:39:25.895Z,100600.60
2023-08-30T00:41:53.754Z,100601.20
2023-08-30T00:44:21.577Z,100604.00
2023-08-30T00:46:50.112Z,100605.20
2023-08-30T00:49:19.355Z,100604.20
2023-08-30T00:51:47.512Z,100603.00
2023-08-30T00:54:17.224Z,100601.20
2023-08-30T00:56:45.652Z,100603.40
2023-08-30T00:59:15.000Z,100604.40
2023-08-30T01:01:42.968Z,100606.40
2023-08-30T01:04:10.962Z,100611.00
2023-08-30T01:06:38.863Z,100612.80
2023-08-30T01:09:07.900Z,100616.20
2023-08-30T01:12:33.456Z,100621.80
2023-08-30T01:15:15.718Z,100624.60
2023-08-30T01:17:44.908Z,100625.80
2023-08-30T01:20:23.221Z,100621.20
2023-08-30T01:23:31.409Z,100620.00
2023-08-30T01:26:32.152Z,100621.60
2023-08-30T01:29:04.594Z,100615.80
2023-08-30T01:31:34.981Z,100617.60
2023-08-30T01:34:05.418Z,100621.80
2023-08-30T01:36:34.461Z,100620.80
2023-08-30T01:39:02.975Z,100623.40
2023-08-30T01:41:32.343Z,100625.00
2023-08-30T01:44:05.126Z,100624.40
2023-08-30T01:46:34.784Z,100624.20
2023-08-30T01:49:05.653Z,100628.40
2023-08-30T01:51:34.720Z,100628.00
2023-08-30T01:54:07.675Z,100629.20
2023-08-30T01:56:35.513Z,100625.20
2023-08-30T01:59:03.359Z,100630.60
2023-08-30T02:01:31.659Z,100635.00
2023-08-30T02:04:02.150Z,100634.80
2023-08-30T02:07:09.763Z,100635.40
2023-08-30T02:10:00.172Z,100630.40
2023-08-30T02:12:46.168Z,100630.60
2023-08-30T02:15:17.089Z,100630.60
2023-08-30T02:17:46.681Z,100626.80
2023-08-30T02:20:15.501Z,100626.60
2023-08-30T02:22:46.095Z,100632.80
2023-08-30T02:25:13.970Z,100633.00
2023-08-30T02:27:42.233Z,100637.60
2023-08-30T02:30:10.574Z,100638.00
2023-08-30T02:32:38.573Z,100640.00
2023-08-30T02:35:07.189Z,100637.80
2023-08-30T02:37:35.059Z,100634.00
2023-08-30T02:40:04.114Z,100639.80
2023-08-30T02:42:32.045Z,100635.60
2023-08-30T02:44:59.863Z,100634.00
2023-08-30T02:47:27.689Z,100631.80
2023-08-30T02:49:55.463Z,100630.00
2023-08-30T02:52:23.270Z,100633.40
2023-08-30T02:54:51.177Z,100634.40
2023-08-30T02:57:19.032Z,100633.80
2023-08-30T02:59:46.949Z,100628.80
2023-08-30T03:02:14.879Z,100629.00
2023-08-30T03:04:43.767Z,100625.20
2023-08-30T03:07:11.608Z,100624.60
2023-08-30T03:09:40.467Z,100624.20
2023-08-30T03:12:09.492Z,100623.60
2023-08-30T03:14:37.462Z,100627.40
2023-08-30T03:17:05.506Z,100627.40
2023-08-30T03:19:33.353Z,100620.00
2023-08-30T03:22:01.584Z,100617.00
2023-08-30T03:24:29.749Z,100620.60
2023-08-30T03:26:57.657Z,100623.80
2023-08-30T03:29:25.434Z,100627.00
2023-08-30T03:31:53.529Z,100627.80
2023-08-30T03:34:21.288Z,100627.00
2023-08-30T03:36:55.438Z,100627.40
2023-08-30T03:39:23.986Z,100630.00
2023-08-30T03:41:52.151Z,100628.80
2023-08-30T03:44:20.093Z,100633.00
2023-08-30T03:46:48.411Z,100632.00
2023-08-30T03:49:16.456Z,100631.40
2023-08-30T03:51:44.360Z,100625.60
2023-08-30T03:54:17.419Z,100622.20
2023-08-30T03:56:45.901Z,100621.20
2023-08-30T03:59:14.020Z,100621.80
2023-08-30T04:01:41.817Z,100620.40
2023-08-30T04:04:09.680Z,100615.60
2023-08-30T04:06:37.431Z,100612.40
2023-08-30T04:09:05.680Z,100611.60
2023-08-30T04:11:34.087Z,100616.60
2023-08-30T04:14:01.988Z,100618.00
2023-08-30T04:16:30.974Z,100617.00
2023-08-30T04:18:59.421Z,100612.60
2023-08-30T04:21:27.282Z,100612.80
2023-08-30T04:23:55.080Z,100613.40
2023-08-30T04:26:23.461Z,100616.40
2023-08-30T04:28:51.232Z,100613.80
2023-08-30T04:31:19.133Z,100608.00
2023-08-30T04:33:47.030Z,100611.40
2023-08-30T04:36:17.713Z,100603.80
2023-08-30T04:38:56.177Z,100601.20
2023-08-30T04:41:30.048Z,100608.20
2023-08-30T04:43:57.905Z,100605.60
2023-08-30T04:46:26.036Z,100605.80
2023-08-30T04:48:54.265Z,100612.60
2023-08-30T04:51:22.117Z,100609.00
2023-08-30T04:53:49.892Z,100612.60
2023-08-30T04:56:19.556Z,100611.40
2023-08-30T04:58:47.773Z,100614.60
2023-08-30T05:01:15.940Z,100620.60
2023-08-30T05:03:44.361Z,100621.80
2023-08-30T05:06:15.091Z,100624.00
2023-08-30T05:08:43.616Z,100617.20
2023-08-30T05:11:11.719Z,100622.20
2023-08-30T05:13:40.434Z,100621.40
2023-08-30T05:16:08.363Z,100625.00
2023-08-30T05:18:36.275Z,100623.80
2023-08-30T05:21:05.420Z,100627.60
2023-08-30T05:23:33.289Z,100631.60
2023-08-30T05:26:01.487Z,100633.80
2023-08-30T05:28:29.798Z,100634.60
2023-08-30T05:30:57.848Z,100637.80
2023-08-30T05:33:28.121Z,100632.40
2023-08-30T05:35:56.224Z,100629.40
2023-08-30T05:38:24.033Z,100629.00
2023-08-30T05:40:52.016Z,100629.80
2023-08-30T05:43:20.093Z,100627.40
2023-08-30T05:45:48.769Z,100628.20
2023-08-30T05:48:16.830Z,100626.60
2023-08-30T05:50:46.391Z,100624.80
2023-08-30T05:53:14.381Z,100630.40
2023-08-30T05:55:42.410Z,100632.00
2023-08-30T05:58:10.789Z,100633.20
2023-08-30T06:00:38.936Z,100632.60
2023-08-30T06:03:07.037Z,100632.80
2023-08-30T06:05:35.759Z,100634.80
2023-08-30T06:08:04.069Z,100636.20
2023-08-30T06:10:32.076Z,100630.60
2023-08-30T06:12:59.884Z,100630.80
2023-08-30T06:15:27.756Z,100629.20
2023-08-30T06:17:55.902Z,100628.80
2023-08-30T06:20:24.160Z,100627.80
2023-08-30T06:22:52.071Z,100622.20
2023-08-30T06:25:20.171Z,100615.80
2023-08-30T06:28:00.233Z,100624.60
2023-08-30T06:30:30.512Z,100626.60
2023-08-30T06:32:58.867Z,100627.00
2023-08-30T06:35:26.952Z,100623.80
2023-08-30T06:37:54.877Z,100628.20
2023-08-30T06:40:22.964Z,100626.20
2023-08-30T06:42:50.824Z,100627.60
2023-08-30T06:45:18.617Z,100629.40
2023-08-30T06:47:47.004Z,100633.40
2023-08-30T06:50:14.870Z,100634.80
2023-08-30T06:52:42.768Z,100628.20
2023-08-30T06:55:11.501Z,100637.80
2023-08-30T06:57:39.459Z,100637.40
2023-08-30T07:00:08.910Z,100636.00
2023-08-30T07:02:39.027Z,100638.40
2023-08-30T07:05:07.780Z,100636.20
2023-08-30T07:07:35.602Z,100635.20
2023-08-30T07:10:04.054Z,100642.60
2023-08-30T07:12:31.880Z,100638.80
2023-08-30T07:15:00.119Z,100639.20
2023-08-30T07:17:36.943Z,100640.80
2023-08-30T07:20:15.255Z,100642.20
2023-08-30T07:22:43.141Z,100641.60
2023-08-30T07:25:11.551Z,100638.80
2023-08-30T07:27:39.773Z,100633.20
2023-08-30T07:30:08.588Z,100633.60
2023-08-30T07:32:37.598Z,100635.60
2023-08-30T07:35:06.526Z,100635.80
2023-08-30T07:37:36.451Z,100633.80
2023-08-30T07:40:07.317Z,100638.20
2023-08-30T07:42:35.141Z,100640.40
2023-08-30T07:45:05.394Z,100639.60
2023-08-30T07:47:33.763Z,100642.20
2023-08-30T07:50:01.636Z,100641.60
2023-08-30T07:52:43.499Z,100643.40
2023-08-30T07:55:15.265Z,100640.40
2023-08-30T07:57:43.186Z,100641.60
2023-08-30T08:00:12.091Z,100639.20
2023-08-30T08:02:42.116Z,100638.60
2023-08-30T08:05:10.200Z,100639.40
2023-08-30T08:07:41.483Z,100637.20
2023-08-30T08:10:10.886Z,100641.00
2023-08-30T08:12:39.208Z,100638.40
2023-08-30T08:15:07.708Z,100636.40
2023-08-30T08:17:36.016Z,100634.80
2023-08-30T08:20:07.671Z,100630.80
2023-08-30T08:22:35.688Z,100635.00
2023-08-30T08:25:04.120Z,100628.80
2023-08-30T08:27:32.026Z,100634.60
2023-08-30T08:29:59.877Z,100634.20
2023-08-30T08:32:27.826Z,100633.40
2023-08-30T08:34:56.151Z,100628.60
2023-08-30T08:37:24.254Z,100628.80
2023-08-30T08:39:52.123Z,100635.80
2023-08-30T08:42:21.365Z,100641.00
2023-08-30T08:44:54.446Z,100642.40
2023-08-30T08:47:22.482Z,100643.80
2023-08-30T08:49:51.910Z,100643.20
2023-08-30T08:52:29.939Z,100641.00
2023-08-30T08:55:01.280Z,100647.00
2023-08-30T08:57:33.412Z,100652.80
2023-08-30T09:00:01.296Z,100653.40
2023-08-30T09:02:30.499Z,100653.80
2023-08-30T09:05:00.816Z,100657.60
2023-08-30T09:07:31.264Z,100658.40
2023-08-30T09:10:00.555Z,100657.20
2023-08-30T09:12:28.678Z,100649.40
2023-08-30T09:14:58.107Z,100650.40
2023-08-30T09:17:38.342Z,100652.20
2023-08-30T09:20:11.915Z,100655.00
2023-08-30T09:22:45.835Z,100657.20
2023-08-30T09:25:28.403Z,100659.00
2023-08-30T09:28:01.148Z,100661.60
2023-08-30T09:30:30.591Z,100662.00
2023-08-30T09:33:05.280Z,100664.00
2023-08-30T09:35:33.696Z,100666.80
2023-08-30T09:38:01.462Z,100668.00
2023-08-30T09:40:30.289Z,100665.80
2023-08-30T09:43:12.862Z,100669.80
2023-08-30T09:45:42.679Z,100668.40
2023-08-30T09:48:11.258Z,100674.80
2023-08-30T09:50:42.987Z,100678.60
2023-08-30T09:53:15.161Z,100672.80
2023-08-30T09:55:46.196Z,100672.00
2023-08-30T09:58:17.379Z,100670.00
2023-08-30T10:00:49.765Z,100671.20
2023-08-30T10:03:30.352Z,100671.80
2023-08-30T10:06:02.043Z,100670.00
2023-08-30T10:08:32.585Z,100671.00
2023-08-30T10:11:01.356Z,100673.40
2023-08-30T10:13:30.901Z,100673.00
2023-08-30T10:16:06.238Z,100674.80
2023-08-30T10:18:39.731Z,100675.80
2023-08-30T10:21:14.021Z,100676.80
2023-08-30T10:23:43.717Z,100681.20
2023-08-30T10:26:11.634Z,100682.60
2023-08-30T10:28:42.394Z,100683.60
2023-08-30T10:31:10.666Z,100686.20
2023-08-30T10:33:53.933Z,100683.60
2023-08-30T10:36:26.170Z,100677.80
2023-08-30T10:38:55.665Z,100677.60
2023-08-30T10:41:27.806Z,100677.60
2023-08-30T10:44:00.585Z,100673.40
2023-08-30T10:46:36.730Z,100676.20
2023-08-30T10:49:16.650Z,100677.60
2023-08-30T10:51:45.797Z,100685.00
2023-08-30T10:54:17.730Z,100683.40
2023-08-30T10:56:52.036Z,100685.60
2023-08-30T10:59:21.468Z,100682.80
2023-08-30T11:01:53.173Z,100683.40
2023-08-30T11:04:23.308Z,100679.60
2023-08-30T11:06:54.836Z,100677.40
2023-08-30T11:09:26.085Z,100678.20
2023-08-30T11:11:54.169Z,100679.20
2023-08-30T11:14:22.057Z,100681.40
2023-08-30T11:16:50.134Z,100679.20
2023-08-30T11:19:18.519Z,100679.20
2023-08-30T11:21:47.232Z,100676.80
2023-08-30T11:24:16.371Z,100677.80
2023-08-30T11:26:44.498Z,100681.20
2023-08-30T11:29:12.262Z,100684.60
2023-08-30T11:31:40.358Z,100690.00
2023-08-30T11:34:08.511Z,100698.80
2023-08-30T11:36:37.597Z,100703.60
2023-08-30T11:39:06.612Z,100702.00
2023-08-30T11:41:34.650Z,100701.00
2023-08-30T11:44:03.032Z,100702.40
2023-08-30T11:46:31.383Z,100706.80
2023-08-30T11:49:00.228Z,100710.00
2023-08-30T11:51:28.889Z,100712.60
2023-08-30T11:53:58.372Z,100712.00
2023-08-30T11:56:27.143Z,100712.20
2023-08-30T11:58:55.337Z,100719.00
2023-08-30T12:01:23.526Z,100720.40
2023-08-30T12:03:54.320Z,100722.40
2023-08-30T12:06:25.337Z,100722.80
2023-08-30T12:09:00.116Z,100724.00
2023-08-30T12:11:30.576Z,100733.80
2023-08-30T12:14:04.068Z,100734.40
2023-08-30T12:16:32.450Z,100737.00
2023-08-30T12:19:16.276Z,100732.80
2023-08-30T12:21:44.604Z,100730.20
2023-08-30T12:24:12.506Z,100729.40
2023-08-30T12:26:40.505Z,100728.60
2023-08-30T12:29:08.383Z,100725.40
2023-08-30T12:31:36.938Z,100725.80
2023-08-30T12:34:05.122Z,100727.80
2023-08-30T12:36:33.253Z,100724.00
2023-08-30T12:39:01.109Z,100725.40
2023-08-30T12:41:29.254Z,100727.20
2023-08-30T12:43:57.202Z,100733.20
2023-08-30T12:46:25.031Z,100734.20
2023-08-30T12:48:52.840Z,100729.80
2023-08-30T12:51:20.640Z,100730.00
2023-08-30T12:53:48.431Z,100729.20
2023-08-30T12:56:16.223Z,100730.00
2023-08-30T12:58:43.950Z,100727.00
2023-08-30T13:01:13.821Z,100732.20
2023-08-30T13:03:41.817Z,100731.20
2023-08-30T13:06:09.719Z,100730.60
2023-08-30T13:08:38.022Z,100728.00
2023-08-30T13:11:06.056Z,100727.80
2023-08-30T13:13:34.119Z,100727.40
2023-08-30T13:16:03.134Z,100726.80
2023-08-30T13:18:31.044Z,100717.80
2023-08-30T13:20:58.807Z,100718.00
2023-08-30T13:23:26.649Z,100713.20
2023-08-30T13:25:54.637Z,100704.40
2023-08-30T13:28:22.431Z,100701.20
2023-08-30T13:30:52.670Z,100702.60
2023-08-30T13:33:20.685Z,100700.00
2023-08-30T13:35:55.248Z,100698.00
2023-08-30T13:38:24.206Z,100695.00
2023-08-30T13:40:52.354Z,100687.40
2023-08-30T13:43:20.589Z,100686.60
2023-08-30T13:45:58.116Z,100686.20
2023-08-30T13:48:26.078Z,100681.20
2023-08-30T13:50:54.301Z,100684.20
2023-08-30T13:53:22.136Z,100681.40
2023-08-30T13:55:50.142Z,100688.80
2023-08-30T13:58:18.027Z,100686.60
2023-08-30T14:00:46.823Z,100691.40
2023-08-30T14:03:16.632Z,100692.00
2023-08-30T14:05:44.991Z,100692.00
2023-08-30T14:08:14.950Z,100690.80
2023-08-30T14:10:42.977Z,100693.80
2023-08-30T14:13:11.323Z,100694.00
2023-08-30T14:15:39.782Z,100690.20
2023-08-30T14:18:09.187Z,100693.20
2023-08-30T14:20:37.269Z,100693.00
2023-08-30T14:23:05.173Z,100695.20
2023-08-30T14:25:33.281Z,100690.80
2023-08-30T14:28:04.626Z,100694.20
2023-08-30T14:30:32.458Z,100690.20
2023-08-30T14:33:00.623Z,100685.40
2023-08-30T14:35:30.990Z,100690.60
2023-08-30T14:37:58.838Z,100688.00
2023-08-30T14:40:26.984Z,100692.80
2023-08-30T14:42:54.874Z,100694.80
2023-08-30T14:45:23.121Z,100698.20
2023-08-30T14:47:50.980Z,100694.40
2023-08-30T14:50:19.043Z,100698.00
2023-08-30T14:52:47.432Z,100695.20
2023-08-30T14:55:15.389Z,100700.60
2023-08-30T14:57:43.612Z,100697.20
2023-08-30T15:00:12.969Z,100696.80
2023-08-30T15:02:41.119Z,100704.00
2023-08-30T15:05:09.808Z,100710.00
2023-08-30T15:07:37.646Z,100714.80
2023-08-30T15:10:07.339Z,100715.80
2023-08-30T15:12:35.256Z,100715.80
2023-08-30T15:15:03.156Z,100716.40
2023-08-30T15:17:31.330Z,100723.20
2023-08-30T15:19:59.967Z,100721.20
2023-08-30T15:22:28.332Z,100717.20
2023-08-30T15:24:56.679Z,100723.00
2023-08-30T15:27:24.516Z,100720.60
2023-08-30T15:29:54.946Z,100720.40
2023-08-30T15:32:24.261Z,100724.00
2023-08-30T15:34:52.300Z,100728.80
2023-08-30T15:37:20.174Z,100728.00
2023-08-30T15:40:00.806Z,100725.20
2023-08-30T15:42:34.033Z,100724.40
2023-08-30T15:45:03.950Z,100727.00
2023-08-30T15:47:33.670Z,100725.00
2023-08-30T15:50:01.555Z,100725.00
2023-08-30T15:52:31.110Z,100726.80
2023-08-30T15:54:59.652Z,100726.20
2023-08-30T15:57:27.713Z,100730.00
2023-08-30T15:59:55.860Z,100723.20
2023-08-30T16:02:24.012Z,100727.40
2023-08-30T16:04:52.095Z,100725.80
2023-08-30T16:07:20.021Z,100724.60
2023-08-30T16:09:49.541Z,100726.00
2023-08-30T16:12:18.060Z,100721.20
2023-08-30T16:14:45.933Z,100721.20
2023-08-30T16:17:13.735Z,100717.20
2023-08-30T16:19:41.546Z,100718.20
2023-08-30T16:22:09.591Z,100710.40
2023-08-30T16:24:37.484Z,100706.20
2023-08-30T16:27:05.584Z,100709.80
2023-08-30T16:29:33.350Z,100709.80
2023-08-30T16:32:01.261Z,100706.60
2023-08-30T16:34:29.931Z,100711.00
2023-08-30T16:36:57.766Z,100706.20
2023-08-30T16:39:26.258Z,100706.20
2023-08-30T16:41:54.164Z,100710.20
2023-08-30T16:44:21.945Z,100712.60
2023-08-30T16:46:50.107Z,100715.00
2023-08-30T16:49:18.049Z,100711.20
2023-08-30T16:51:45.867Z,100711.40
2023-08-30T16:54:14.224Z,100714.40
2023-08-30T16:56:42.166Z,100716.20
2023-08-30T16:59:12.525Z,100719.40
2023-08-30T17:01:43.108Z,100714.20
2023-08-30T17:04:15.443Z,100715.80
2023-08-30T17:06:44.151Z,100721.00
2023-08-30T17:09:12.213Z,100719.20
2023-08-30T17:11:40.573Z,100715.40
2023-08-30T17:14:13.492Z,100714.80
2023-08-30T17:16:41.976Z,100716.00
2023-08-30T17:19:10.309Z,100718.80
2023-08-30T17:21:39.247Z,100719.80
2023-08-30T17:24:07.422Z,100717.40
2023-08-30T17:26:35.594Z,100723.80
2023-08-30T17:29:04.690Z,100718.80
2023-08-30T17:31:34.032Z,100719.60
2023-08-30T17:34:02.127Z,100720.80
2023-08-30T17:36:30.142Z,100720.60
2023-08-30T17:39:05.930Z,100720.40
2023-08-30T17:41:35.174Z,100721.40
2023-08-30T17:44:03.431Z,100721.40
2023-08-30T17:46:34.102Z,100720.80
2023-08-30T17:49:02.301Z,100717.00
2023-08-30T17:51:30.176Z,100717.80
2023-08-30T17:53:59.402Z,100721.40
2023-08-30T17:56:28.346Z,100721.80
2023-08-30T17:58:56.199Z,100721.60
2023-08-30T18:01:28.677Z,100726.20
2023-08-30T18:03:57.462Z,100727.60
2023-08-30T18:06:26.294Z,100725.20
2023-08-30T18:08:54.230Z,100725.40
2023-08-30T18:11:23.742Z,100720.80
2023-08-30T18:13:52.400Z,100721.20
2023-08-30T18:16:21.975Z,100724.60
2023-08-30T18:18:52.022Z,100721.80
2023-08-30T18:21:21.315Z,100722.40
2023-08-30T18:24:20.745Z,100718.80
2023-08-30T18:26:51.516Z,100717.80
2023-08-30T18:29:21.052Z,100718.80
2023-08-30T18:31:49.555Z,100717.00
2023-08-30T18:34:18.765Z,100720.20
2023-08-30T18:36:47.378Z,100720.80
2023-08-30T18:39:18.159Z,100719.40
2023-08-30T18:41:46.031Z,100717.40
2023-08-30T18:44:14.266Z,100717.00
2023-08-30T18:46:42.086Z,100717.60
2023-08-30T18:49:10.128Z,100723.40
2023-08-30T18:51:39.024Z,100724.60
2023-08-30T18:54:07.845Z,100724.00
2023-08-30T18:56:36.638Z,100722.40
2023-08-30T18:59:05.607Z,100725.00
2023-08-30T19:01:34.632Z,100727.00
2023-08-30T19:04:04.043Z,100719.20
2023-08-30T19:06:32.112Z,100721.00
2023-08-30T19:09:00.720Z,100719.00
2023-08-30T19:11:28.625Z,100713.60
2023-08-30T19:13:56.835Z,100719.40
2023-08-30T19:16:24.712Z,100720.20
2023-08-30T19:18:52.515Z,100717.80
2023-08-30T19:21:21.365Z,100719.00
2023-08-30T19:23:49.625Z,100724.80
2023-08-30T19:26:18.043Z,100726.40
2023-08-30T19:28:46.661Z,100728.00
2023-08-30T19:31:14.661Z,100723.60
2023-08-30T19:33:42.519Z,100728.20
2023-08-30T19:36:10.886Z,100728.20
2023-08-30T19:38:38.729Z,100728.00
2023-08-30T19:41:06.633Z,100732.20
2023-08-30T19:43:37.462Z,100734.60
2023-08-30T19:46:09.161Z,100732.80
2023-08-30T19:48:37.349Z,100726.60
2023-08-30T19:51:05.436Z,100727.40
2023-08-30T19:53:33.525Z,100737.00
2023-08-30T19:56:04.458Z,100743.40
2023-08-30T19:58:32.557Z,100746.20
2023-08-30T20:01:06.604Z,100744.60
2023-08-30T20:03:35.569Z,100745.40
2023-08-30T20:06:04.647Z,100742.60
2023-08-30T20:08:32.975Z,100742.20
2023-08-30T20:11:04.528Z,100737.80
2023-08-30T20:13:33.277Z,100739.60
2023-08-30T20:16:04.186Z,100740.80
2023-08-30T20:18:32.907Z,100740.60
2023-08-30T20:21:03.317Z,100742.00
2023-08-30T20:23:31.784Z,100739.20
2023-08-30T20:26:00.760Z,100741.20
2023-08-30T20:28:28.964Z,100746.00
2023-08-30T20:30:56.850Z,100751.20
2023-08-30T20:33:26.114Z,100755.60
2023-08-30T20:35:54.156Z,100753.20
2023-08-30T20:38:23.372Z,100755.80
2023-08-30T20:40:51.420Z,100755.00
2023-08-30T20:43:19.178Z,100760.00
2023-08-30T20:45:48.521Z,100760.40
2023-08-30T20:48:16.364Z,100755.40
2023-08-30T20:50:44.256Z,100758.20
2023-08-30T20:53:12.059Z,100762.00
2023-08-30T20:55:44.972Z,100758.40
2023-08-30T20:58:12.782Z,100758.20
2023-08-30T21:00:42.984Z,100760.00
2023-08-30T21:03:11.196Z,100759.80
2023-08-30T21:05:39.660Z,100765.20
2023-08-30T21:08:07.446Z,100766.40
2023-08-30T21:10:35.847Z,100767.20
2023-08-30T21:13:06.062Z,100762.00
2023-08-30T21:15:39.149Z,100761.20
2023-08-30T21:18:07.645Z,100764.00
2023-08-30T21:20:36.377Z,100762.60
2023-08-30T21:23:05.493Z,100762.60
2023-08-30T21:25:42.450Z,100760.00
2023-08-30T21:28:10.557Z,100759.80
2023-08-30T21:30:44.323Z,100755.00
2023-08-30T21:33:17.230Z,100753.60
2023-08-30T21:35:47.430Z,100750.40
2023-08-30T21:38:20.294Z,100755.20
2023-08-30T21:40:49.332Z,100755.40
2023-08-30T21:43:17.337Z,100757.40
2023-08-30T21:45:45.217Z,100754.20
2023-08-30T21:48:13.177Z,100753.20
2023-08-30T21:50:41.328Z,100756.00
2023-08-30T21:53:09.756Z,100755.40
2023-08-30T21:55:38.138Z,100756.40
2023-08-30T21:58:06.266Z,100757.60
2023-08-30T22:00:34.872Z,100756.80
2023-08-30T22:03:03.097Z,100753.80
2023-08-30T22:05:31.624Z,100754.60
2023-08-30T22:08:00.570Z,100753.60
2023-08-30T22:10:28.548Z,100754.00
2023-08-30T22:12:57.277Z,100755.20
2023-08-30T22:15:25.359Z,100753.40
2023-08-30T22:17:53.364Z,100752.20
2023-08-30T22:20:21.630Z,100756.80
2023-08-30T22:22:49.949Z,100761.40
2023-08-30T22:25:18.321Z,100758.80
2023-08-30T22:27:46.433Z,100759.40
2023-08-30T22:30:18.710Z,100763.20
2023-08-30T22:32:46.728Z,100761.20
2023-08-30T22:35:16.609Z,100757.40
2023-08-30T22:37:45.415Z,100756.40
2023-08-30T22:40:13.905Z,100758.40
2023-08-30T22:42:42.680Z,100754.00
2023-08-30T22:45:11.477Z,100750.80
2023-08-30T22:47:39.572Z,100745.40
2023-08-30T22:50:08.677Z,100739.20
2023-08-30T22:52:37.202Z,100735.40
2023-08-30T22:55:06.188Z,100734.40
2023-08-30T22:57:34.448Z,100735.60
2023-08-30T23:00:08.732Z,100736.20
2023-08-30T23:02:37.164Z,100736.00
2023-08-30T23:05:07.330Z,100737.20
2023-08-30T23:07:35.452Z,100735.00
2023-08-30T23:10:05.573Z,100735.20
2023-08-30T23:12:34.173Z,100736.80
2023-08-30T23:15:02.451Z,100737.60
2023-08-30T23:17:41.042Z,100744.80
2023-08-30T23:20:11.619Z,100744.60
2023-08-30T23:22:40.683Z,100743.80
2023-08-30T23:25:10.675Z,100745.60
2023-08-30T23:27:38.805Z,100744.00
2023-08-30T23:30:09.123Z,100741.00
2023-08-30T23:32:37.736Z,100740.60
2023-08-30T23:35:06.895Z,100736.80
2023-08-30T23:37:34.936Z,100734.00
2023-08-30T23:40:07.965Z,100736.40
2023-08-30T23:42:35.830Z,100737.80
2023-08-30T23:45:05.802Z,100738.20
2023-08-30T23:47:34.432Z,100730.80
2023-08-30T23:50:03.989Z,100724.60
2023-08-30T23:52:31.872Z,100722.00
2023-08-30T23:54:59.942Z,100717.80
2023-08-30T23:57:28.464Z,100721.80
2023-08-30T23:59:56.469Z,100723.40
